sensor_id;sensor_type;location;lat;lon;timestamp;P1;durP1;ratioP1;P2;durP2;ratioP2
44143;SDS011;68165;51.920;4.492;2023-05-10T00:01:15;43.43;;;19.30;;
44143;SDS011;68165;51.920;4.492;2023-05-10T00:03:41;50.43;;;21.37;;
44143;SDS011;68165;51.920;4.492;2023-05-10T00:06:06;48.53;;;22.53;;
44143;SDS011;68165;51.920;4.492;2023-05-10T00:08:31;48.85;;;22.60;;
44143;SDS011;68165;51.920;4.492;2023-05-10T00:10:57;49.08;;;23.55;;
44143;SDS011;68165;51.920;4.492;2023-05-10T00:13:22;52.77;;;22.93;;
44143;SDS011;68165;51.920;4.492;2023-05-10T00:15:47;47.07;;;23.20;;
44143;SDS011;68165;51.920;4.492;2023-05-10T00:18:13;47.53;;;23.67;;
44143;SDS011;68165;51.920;4.492;2023-05-10T00:20:38;50.83;;;23.97;;
44143;SDS011;68165;51.920;4.492;2023-05-10T00:23:03;51.43;;;24.03;;
44143;SDS011;68165;51.920;4.492;2023-05-10T00:25:29;44.17;;;22.73;;
44143;SDS011;68165;51.920;4.492;2023-05-10T00:27:54;51.65;;;24.30;;
44143;SDS011;68165;51.920;4.492;2023-05-10T00:30:23;51.15;;;23.15;;
44143;SDS011;68165;51.920;4.492;2023-05-10T00:32:48;48.78;;;22.75;;
44143;SDS011;68165;51.920;4.492;2023-05-10T00:35:15;45.58;;;20.20;;
44143;SDS011;68165;51.920;4.492;2023-05-10T00:37:40;48.17;;;20.60;;
44143;SDS011;68165;51.920;4.492;2023-05-10T00:40:06;51.57;;;22.30;;
44143;SDS011;68165;51.920;4.492;2023-05-10T00:42:32;46.43;;;20.43;;
44143;SDS011;68165;51.920;4.492;2023-05-10T00:44:57;49.10;;;20.77;;
44143;SDS011;68165;51.920;4.492;2023-05-10T00:47:22;43.20;;;19.87;;
44143;SDS011;68165;51.920;4.492;2023-05-10T00:49:48;45.83;;;20.30;;
44143;SDS011;68165;51.920;4.492;2023-05-10T00:52:14;46.03;;;19.70;;
44143;SDS011;68165;51.920;4.492;2023-05-10T00:54:40;45.13;;;20.77;;
44143;SDS011;68165;51.920;4.492;2023-05-10T00:57:05;45.37;;;20.07;;
44143;SDS011;68165;51.920;4.492;2023-05-10T00:59:31;39.77;;;19.50;;
44143;SDS011;68165;51.920;4.492;2023-05-10T01:01:57;45.92;;;20.35;;
44143;SDS011;68165;51.920;4.492;2023-05-10T01:04:23;42.70;;;19.85;;
44143;SDS011;68165;51.920;4.492;2023-05-10T01:06:50;44.03;;;19.63;;
44143;SDS011;68165;51.920;4.492;2023-05-10T01:09:16;43.50;;;18.75;;
44143;SDS011;68165;51.920;4.492;2023-05-10T01:11:43;45.25;;;20.35;;
44143;SDS011;68165;51.920;4.492;2023-05-10T01:14:08;48.00;;;20.00;;
44143;SDS011;68165;51.920;4.492;2023-05-10T01:16:36;44.87;;;19.70;;
44143;SDS011;68165;51.920;4.492;2023-05-10T01:19:11;47.88;;;20.35;;
44143;SDS011;68165;51.920;4.492;2023-05-10T01:21:48;49.95;;;21.55;;
44143;SDS011;68165;51.920;4.492;2023-05-10T01:35:37;47.47;;;19.73;;
44143;SDS011;68165;51.920;4.492;2023-05-10T01:43:42;49.20;;;20.67;;
44143;SDS011;68165;51.920;4.492;2023-05-10T01:46:20;40.83;;;19.08;;
44143;SDS011;68165;51.920;4.492;2023-05-10T01:48:52;46.75;;;19.65;;
44143;SDS011;68165;51.920;4.492;2023-05-10T01:51:23;43.42;;;18.45;;
44143;SDS011;68165;51.920;4.492;2023-05-10T01:53:51;42.13;;;18.97;;
44143;SDS011;68165;51.920;4.492;2023-05-10T01:56:24;45.00;;;18.55;;
44143;SDS011;68165;51.920;4.492;2023-05-10T01:58:51;35.63;;;17.23;;
44143;SDS011;68165;51.920;4.492;2023-05-10T02:01:20;40.33;;;19.55;;
44143;SDS011;68165;51.920;4.492;2023-05-10T02:03:46;42.42;;;19.13;;
44143;SDS011;68165;51.920;4.492;2023-05-10T02:06:14;42.28;;;17.55;;
44143;SDS011;68165;51.920;4.492;2023-05-10T02:08:43;42.78;;;17.90;;
44143;SDS011;68165;51.920;4.492;2023-05-10T02:11:10;41.53;;;18.10;;
44143;SDS011;68165;51.920;4.492;2023-05-10T02:13:38;39.43;;;17.80;;
44143;SDS011;68165;51.920;4.492;2023-05-10T02:16:05;40.15;;;18.98;;
44143;SDS011;68165;51.920;4.492;2023-05-10T02:18:32;41.67;;;18.75;;
44143;SDS011;68165;51.920;4.492;2023-05-10T02:20:59;41.28;;;19.55;;
44143;SDS011;68165;51.920;4.492;2023-05-10T02:23:29;45.13;;;20.37;;
44143;SDS011;68165;51.920;4.492;2023-05-10T02:25:55;43.15;;;19.63;;
44143;SDS011;68165;51.920;4.492;2023-05-10T02:28:25;40.50;;;18.55;;
44143;SDS011;68165;51.920;4.492;2023-05-10T02:30:52;35.83;;;17.92;;
44143;SDS011;68165;51.920;4.492;2023-05-10T02:33:19;40.17;;;18.27;;
44143;SDS011;68165;51.920;4.492;2023-05-10T02:35:46;37.90;;;18.02;;
44143;SDS011;68165;51.920;4.492;2023-05-10T02:38:13;34.05;;;17.35;;
44143;SDS011;68165;51.920;4.492;2023-05-10T02:40:40;35.13;;;15.65;;
44143;SDS011;68165;51.920;4.492;2023-05-10T02:43:07;37.33;;;17.20;;
44143;SDS011;68165;51.920;4.492;2023-05-10T02:45:36;38.47;;;16.42;;
44143;SDS011;68165;51.920;4.492;2023-05-10T02:48:04;31.55;;;16.70;;
44143;SDS011;68165;51.920;4.492;2023-05-10T02:50:29;28.65;;;16.15;;
44143;SDS011;68165;51.920;4.492;2023-05-10T02:53:02;29.98;;;15.80;;
44143;SDS011;68165;51.920;4.492;2023-05-10T02:55:37;34.00;;;16.58;;
44143;SDS011;68165;51.920;4.492;2023-05-10T02:58:06;30.65;;;15.98;;
44143;SDS011;68165;51.920;4.492;2023-05-10T03:00:33;33.92;;;17.55;;
44143;SDS011;68165;51.920;4.492;2023-05-10T03:02:58;31.48;;;16.15;;
44143;SDS011;68165;51.920;4.492;2023-05-10T03:05:24;33.25;;;18.08;;
44143;SDS011;68165;51.920;4.492;2023-05-10T03:07:50;35.40;;;18.65;;
44143;SDS011;68165;51.920;4.492;2023-05-10T03:10:16;31.88;;;17.63;;
44143;SDS011;68165;51.920;4.492;2023-05-10T03:15:47;33.83;;;18.02;;
44143;SDS011;68165;51.920;4.492;2023-05-10T03:21:04;37.92;;;20.33;;
44143;SDS011;68165;51.920;4.492;2023-05-10T03:23:35;35.10;;;19.23;;
44143;SDS011;68165;51.920;4.492;2023-05-10T03:26:03;40.58;;;21.55;;
44143;SDS011;68165;51.920;4.492;2023-05-10T03:28:30;37.30;;;20.47;;
44143;SDS011;68165;51.920;4.492;2023-05-10T03:30:58;40.80;;;21.15;;
44143;SDS011;68165;51.920;4.492;2023-05-10T03:33:24;43.95;;;22.38;;
44143;SDS011;68165;51.920;4.492;2023-05-10T03:35:50;41.33;;;21.17;;
44143;SDS011;68165;51.920;4.492;2023-05-10T03:38:15;39.57;;;21.93;;
44143;SDS011;68165;51.920;4.492;2023-05-10T03:40:40;40.22;;;22.67;;
44143;SDS011;68165;51.920;4.492;2023-05-10T03:43:06;43.33;;;22.73;;
44143;SDS011;68165;51.920;4.492;2023-05-10T03:45:31;39.87;;;22.33;;
44143;SDS011;68165;51.920;4.492;2023-05-10T03:47:57;41.23;;;22.30;;
44143;SDS011;68165;51.920;4.492;2023-05-10T03:50:23;44.42;;;24.08;;
44143;SDS011;68165;51.920;4.492;2023-05-10T03:52:48;40.35;;;22.45;;
44143;SDS011;68165;51.920;4.492;2023-05-10T03:55:14;38.80;;;20.70;;
44143;SDS011;68165;51.920;4.492;2023-05-10T03:57:39;40.33;;;22.92;;
44143;SDS011;68165;51.920;4.492;2023-05-10T04:00:05;40.72;;;22.45;;
44143;SDS011;68165;51.920;4.492;2023-05-10T04:02:31;39.30;;;23.15;;
44143;SDS011;68165;51.920;4.492;2023-05-10T04:04:57;42.25;;;23.60;;
44143;SDS011;68165;51.920;4.492;2023-05-10T04:07:23;43.17;;;23.63;;
44143;SDS011;68165;51.920;4.492;2023-05-10T04:09:49;50.05;;;25.15;;
44143;SDS011;68165;51.920;4.492;2023-05-10T04:12:14;41.97;;;23.77;;
44143;SDS011;68165;51.920;4.492;2023-05-10T04:14:39;44.23;;;21.63;;
44143;SDS011;68165;51.920;4.492;2023-05-10T04:17:05;43.95;;;21.70;;
44143;SDS011;68165;51.920;4.492;2023-05-10T04:19:31;40.83;;;19.73;;
44143;SDS011;68165;51.920;4.492;2023-05-10T04:21:57;36.30;;;18.67;;
44143;SDS011;68165;51.920;4.492;2023-05-10T04:24:23;40.28;;;20.45;;
44143;SDS011;68165;51.920;4.492;2023-05-10T04:26:48;44.45;;;21.52;;
44143;SDS011;68165;51.920;4.492;2023-05-10T04:29:13;48.78;;;21.88;;
44143;SDS011;68165;51.920;4.492;2023-05-10T04:31:39;46.58;;;20.40;;
44143;SDS011;68165;51.920;4.492;2023-05-10T04:34:04;48.93;;;23.23;;
44143;SDS011;68165;51.920;4.492;2023-05-10T04:36:30;49.70;;;21.67;;
44143;SDS011;68165;51.920;4.492;2023-05-10T04:38:57;45.78;;;20.35;;
44143;SDS011;68165;51.920;4.492;2023-05-10T04:41:22;48.47;;;21.03;;
44143;SDS011;68165;51.920;4.492;2023-05-10T04:43:48;49.77;;;21.80;;
44143;SDS011;68165;51.920;4.492;2023-05-10T04:46:14;49.85;;;21.48;;
44143;SDS011;68165;51.920;4.492;2023-05-10T04:48:39;51.97;;;21.98;;
44143;SDS011;68165;51.920;4.492;2023-05-10T04:51:06;55.73;;;23.20;;
44143;SDS011;68165;51.920;4.492;2023-05-10T04:53:32;56.03;;;23.48;;
44143;SDS011;68165;51.920;4.492;2023-05-10T04:55:58;57.63;;;22.30;;
44143;SDS011;68165;51.920;4.492;2023-05-10T04:58:23;55.90;;;20.90;;
44143;SDS011;68165;51.920;4.492;2023-05-10T05:00:49;47.33;;;19.03;;
44143;SDS011;68165;51.920;4.492;2023-05-10T05:03:14;41.60;;;15.63;;
44143;SDS011;68165;51.920;4.492;2023-05-10T05:05:39;36.57;;;13.80;;
44143;SDS011;68165;51.920;4.492;2023-05-10T05:08:05;40.57;;;15.40;;
44143;SDS011;68165;51.920;4.492;2023-05-10T05:10:30;36.47;;;14.33;;
44143;SDS011;68165;51.920;4.492;2023-05-10T05:12:55;31.17;;;12.50;;
44143;SDS011;68165;51.920;4.492;2023-05-10T05:15:21;28.27;;;12.27;;
44143;SDS011;68165;51.920;4.492;2023-05-10T05:17:46;26.43;;;10.83;;
44143;SDS011;68165;51.920;4.492;2023-05-10T05:20:12;23.60;;;10.47;;
44143;SDS011;68165;51.920;4.492;2023-05-10T05:22:38;20.95;;;8.63;;
44143;SDS011;68165;51.920;4.492;2023-05-10T05:25:04;18.30;;;8.30;;
44143;SDS011;68165;51.920;4.492;2023-05-10T05:27:29;16.58;;;7.57;;
44143;SDS011;68165;51.920;4.492;2023-05-10T05:29:56;17.13;;;7.50;;
44143;SDS011;68165;51.920;4.492;2023-05-10T05:32:21;15.45;;;7.32;;
44143;SDS011;68165;51.920;4.492;2023-05-10T05:34:47;14.30;;;6.75;;
44143;SDS011;68165;51.920;4.492;2023-05-10T05:37:13;16.53;;;7.73;;
44143;SDS011;68165;51.920;4.492;2023-05-10T05:39:43;14.77;;;7.20;;
44143;SDS011;68165;51.920;4.492;2023-05-10T05:42:09;16.05;;;7.40;;
44143;SDS011;68165;51.920;4.492;2023-05-10T05:44:35;17.48;;;8.18;;
44143;SDS011;68165;51.920;4.492;2023-05-10T05:47:00;17.37;;;7.83;;
44143;SDS011;68165;51.920;4.492;2023-05-10T05:49:25;17.67;;;7.90;;
44143;SDS011;68165;51.920;4.492;2023-05-10T05:51:51;19.33;;;8.27;;
44143;SDS011;68165;51.920;4.492;2023-05-10T05:54:16;19.80;;;8.40;;
44143;SDS011;68165;51.920;4.492;2023-05-10T05:56:42;19.70;;;8.90;;
44143;SDS011;68165;51.920;4.492;2023-05-10T05:59:07;21.43;;;9.13;;
44143;SDS011;68165;51.920;4.492;2023-05-10T06:01:33;24.63;;;9.03;;
44143;SDS011;68165;51.920;4.492;2023-05-10T06:03:58;23.23;;;9.10;;
44143;SDS011;68165;51.920;4.492;2023-05-10T06:06:24;23.70;;;9.73;;
44143;SDS011;68165;51.920;4.492;2023-05-10T06:08:49;19.80;;;9.47;;
44143;SDS011;68165;51.920;4.492;2023-05-10T06:11:14;22.37;;;9.57;;
44143;SDS011;68165;51.920;4.492;2023-05-10T06:13:40;24.95;;;10.15;;
44143;SDS011;68165;51.920;4.492;2023-05-10T06:16:05;25.77;;;10.27;;
44143;SDS011;68165;51.920;4.492;2023-05-10T06:18:31;21.13;;;9.27;;
44143;SDS011;68165;51.920;4.492;2023-05-10T06:20:56;23.60;;;9.63;;
44143;SDS011;68165;51.920;4.492;2023-05-10T06:23:22;21.52;;;9.13;;
44143;SDS011;68165;51.920;4.492;2023-05-10T06:25:49;20.30;;;8.80;;
44143;SDS011;68165;51.920;4.492;2023-05-10T06:28:14;19.38;;;8.45;;
44143;SDS011;68165;51.920;4.492;2023-05-10T06:30:39;19.00;;;9.23;;
44143;SDS011;68165;51.920;4.492;2023-05-10T06:33:05;17.55;;;7.68;;
44143;SDS011;68165;51.920;4.492;2023-05-10T06:35:30;17.70;;;8.15;;
44143;SDS011;68165;51.920;4.492;2023-05-10T06:37:58;14.73;;;7.18;;
44143;SDS011;68165;51.920;4.492;2023-05-10T06:40:23;15.43;;;6.60;;
44143;SDS011;68165;51.920;4.492;2023-05-10T06:42:49;18.33;;;7.27;;
44143;SDS011;68165;51.920;4.492;2023-05-10T06:45:15;11.80;;;6.18;;
44143;SDS011;68165;51.920;4.492;2023-05-10T06:47:41;15.02;;;6.68;;
44143;SDS011;68165;51.920;4.492;2023-05-10T06:50:07;13.20;;;6.15;;
44143;SDS011;68165;51.920;4.492;2023-05-10T06:52:33;12.25;;;5.22;;
44143;SDS011;68165;51.920;4.492;2023-05-10T06:54:59;13.47;;;5.70;;
44143;SDS011;68165;51.920;4.492;2023-05-10T06:57:25;12.67;;;5.30;;
44143;SDS011;68165;51.920;4.492;2023-05-10T06:59:50;13.53;;;5.30;;
44143;SDS011;68165;51.920;4.492;2023-05-10T07:02:16;12.82;;;4.72;;
44143;SDS011;68165;51.920;4.492;2023-05-10T07:04:42;8.75;;;4.38;;
44143;SDS011;68165;51.920;4.492;2023-05-10T07:07:07;9.35;;;4.90;;
44143;SDS011;68165;51.920;4.492;2023-05-10T07:09:33;11.43;;;4.95;;
44143;SDS011;68165;51.920;4.492;2023-05-10T07:11:58;9.88;;;4.78;;
44143;SDS011;68165;51.920;4.492;2023-05-10T07:14:23;10.33;;;4.60;;
44143;SDS011;68165;51.920;4.492;2023-05-10T07:16:49;9.67;;;4.07;;
44143;SDS011;68165;51.920;4.492;2023-05-10T07:19:14;8.37;;;3.63;;
44143;SDS011;68165;51.920;4.492;2023-05-10T07:21:39;7.70;;;3.53;;
44143;SDS011;68165;51.920;4.492;2023-05-10T07:24:07;7.68;;;3.50;;
44143;SDS011;68165;51.920;4.492;2023-05-10T07:26:33;8.32;;;3.80;;
44143;SDS011;68165;51.920;4.492;2023-05-10T07:28:58;9.95;;;3.55;;
44143;SDS011;68165;51.920;4.492;2023-05-10T07:31:23;8.23;;;3.60;;
44143;SDS011;68165;51.920;4.492;2023-05-10T07:33:49;7.83;;;3.83;;
44143;SDS011;68165;51.920;4.492;2023-05-10T07:36:14;7.07;;;3.50;;
44143;SDS011;68165;51.920;4.492;2023-05-10T07:38:40;7.80;;;3.50;;
44143;SDS011;68165;51.920;4.492;2023-05-10T07:41:05;9.13;;;3.73;;
44143;SDS011;68165;51.920;4.492;2023-05-10T07:43:31;8.03;;;3.60;;
44143;SDS011;68165;51.920;4.492;2023-05-10T07:45:56;8.93;;;3.72;;
44143;SDS011;68165;51.920;4.492;2023-05-10T07:48:22;8.88;;;4.22;;
44143;SDS011;68165;51.920;4.492;2023-05-10T07:50:48;7.20;;;3.20;;
44143;SDS011;68165;51.920;4.492;2023-05-10T07:53:13;7.40;;;3.50;;
44143;SDS011;68165;51.920;4.492;2023-05-10T07:55:38;7.60;;;3.57;;
44143;SDS011;68165;51.920;4.492;2023-05-10T07:58:04;7.77;;;4.13;;
44143;SDS011;68165;51.920;4.492;2023-05-10T08:00:30;6.77;;;3.67;;
44143;SDS011;68165;51.920;4.492;2023-05-10T08:02:55;7.40;;;3.53;;
44143;SDS011;68165;51.920;4.492;2023-05-10T08:05:20;7.53;;;3.70;;
44143;SDS011;68165;51.920;4.492;2023-05-10T08:07:46;5.70;;;3.22;;
44143;SDS011;68165;51.920;4.492;2023-05-10T08:10:11;6.40;;;3.20;;
44143;SDS011;68165;51.920;4.492;2023-05-10T08:12:38;8.90;;;3.90;;
44143;SDS011;68165;51.920;4.492;2023-05-10T08:15:03;6.63;;;3.10;;
44143;SDS011;68165;51.920;4.492;2023-05-10T08:17:29;7.55;;;3.60;;
44143;SDS011;68165;51.920;4.492;2023-05-10T08:19:55;6.80;;;3.30;;
44143;SDS011;68165;51.920;4.492;2023-05-10T08:22:20;6.93;;;3.63;;
44143;SDS011;68165;51.920;4.492;2023-05-10T08:24:45;9.17;;;3.90;;
44143;SDS011;68165;51.920;4.492;2023-05-10T08:27:11;7.30;;;3.70;;
44143;SDS011;68165;51.920;4.492;2023-05-10T08:29:37;7.05;;;3.47;;
44143;SDS011;68165;51.920;4.492;2023-05-10T08:32:02;8.50;;;3.45;;
44143;SDS011;68165;51.920;4.492;2023-05-10T08:34:28;8.43;;;3.57;;
44143;SDS011;68165;51.920;4.492;2023-05-10T08:36:53;7.93;;;3.50;;
44143;SDS011;68165;51.920;4.492;2023-05-10T09:33:44;8.80;;;4.85;;
44143;SDS011;68165;51.920;4.492;2023-05-10T09:36:11;9.10;;;4.75;;
44143;SDS011;68165;51.920;4.492;2023-05-10T15:44:08;7.82;;;2.70;;
44143;SDS011;68165;51.920;4.492;2023-05-10T15:46:34;4.67;;;2.33;;
44143;SDS011;68165;51.920;4.492;2023-05-10T15:48:59;4.57;;;2.17;;
44143;SDS011;68165;51.920;4.492;2023-05-10T15:51:25;4.60;;;2.20;;
44143;SDS011;68165;51.920;4.492;2023-05-10T15:53:50;4.70;;;2.20;;
44143;SDS011;68165;51.920;4.492;2023-05-10T15:56:16;4.17;;;2.10;;
44143;SDS011;68165;51.920;4.492;2023-05-10T15:58:41;5.50;;;2.40;;
44143;SDS011;68165;51.920;4.492;2023-05-10T16:01:08;4.88;;;2.40;;
44143;SDS011;68165;51.920;4.492;2023-05-10T16:03:34;5.72;;;2.88;;
44143;SDS011;68165;51.920;4.492;2023-05-10T16:06:01;4.27;;;2.20;;
44143;SDS011;68165;51.920;4.492;2023-05-10T16:08:27;5.35;;;2.30;;
44143;SDS011;68165;51.920;4.492;2023-05-10T16:10:54;4.87;;;1.83;;
44143;SDS011;68165;51.920;4.492;2023-05-10T16:13:20;4.70;;;2.03;;
44143;SDS011;68165;51.920;4.492;2023-05-10T16:15:46;4.07;;;1.90;;
44143;SDS011;68165;51.920;4.492;2023-05-10T16:18:11;5.00;;;2.10;;
44143;SDS011;68165;51.920;4.492;2023-05-10T16:20:37;4.72;;;1.98;;
44143;SDS011;68165;51.920;4.492;2023-05-10T16:23:03;4.97;;;1.80;;
44143;SDS011;68165;51.920;4.492;2023-05-10T16:25:30;4.72;;;2.03;;
44143;SDS011;68165;51.920;4.492;2023-05-10T16:27:56;5.20;;;2.15;;
44143;SDS011;68165;51.920;4.492;2023-05-10T16:47:12;5.00;;;2.40;;
44143;SDS011;68165;51.920;4.492;2023-05-10T16:49:37;5.07;;;1.90;;
44143;SDS011;68165;51.920;4.492;2023-05-10T16:52:02;4.67;;;2.00;;
44143;SDS011;68165;51.920;4.492;2023-05-10T16:54:28;6.60;;;2.70;;
44143;SDS011;68165;51.920;4.492;2023-05-10T16:56:53;6.47;;;2.70;;
44143;SDS011;68165;51.920;4.492;2023-05-10T16:59:19;7.40;;;2.55;;
44143;SDS011;68165;51.920;4.492;2023-05-10T17:01:44;4.90;;;2.20;;
44143;SDS011;68165;51.920;4.492;2023-05-10T17:04:10;7.10;;;3.43;;
44143;SDS011;68165;51.920;4.492;2023-05-10T17:06:37;6.20;;;2.75;;
44143;SDS011;68165;51.920;4.492;2023-05-10T17:09:02;4.87;;;2.50;;
44143;SDS011;68165;51.920;4.492;2023-05-10T17:11:29;7.00;;;3.03;;
44143;SDS011;68165;51.920;4.492;2023-05-10T17:13:55;6.27;;;2.73;;
44143;SDS011;68165;51.920;4.492;2023-05-10T17:16:20;5.70;;;2.60;;
44143;SDS011;68165;51.920;4.492;2023-05-10T17:18:46;5.60;;;2.90;;
44143;SDS011;68165;51.920;4.492;2023-05-10T17:21:11;7.20;;;3.00;;
44143;SDS011;68165;51.920;4.492;2023-05-10T17:23:37;6.40;;;3.20;;
44143;SDS011;68165;51.920;4.492;2023-05-10T17:26:03;7.17;;;3.20;;
44143;SDS011;68165;51.920;4.492;2023-05-10T17:28:29;6.88;;;3.58;;
44143;SDS011;68165;51.920;4.492;2023-05-10T17:30:55;7.37;;;3.57;;
44143;SDS011;68165;51.920;4.492;2023-05-10T17:33:21;6.87;;;3.53;;
44143;SDS011;68165;51.920;4.492;2023-05-10T17:35:47;7.80;;;3.50;;
44143;SDS011;68165;51.920;4.492;2023-05-10T17:38:12;9.20;;;3.67;;
44143;SDS011;68165;51.920;4.492;2023-05-10T17:40:41;6.17;;;3.27;;
44143;SDS011;68165;51.920;4.492;2023-05-10T17:43:07;6.95;;;3.20;;
44143;SDS011;68165;51.920;4.492;2023-05-10T17:45:32;6.90;;;3.37;;
44143;SDS011;68165;51.920;4.492;2023-05-10T17:47:58;7.47;;;3.23;;
44143;SDS011;68165;51.920;4.492;2023-05-10T17:50:23;5.80;;;3.00;;
44143;SDS011;68165;51.920;4.492;2023-05-10T17:52:49;7.03;;;3.50;;
44143;SDS011;68165;51.920;4.492;2023-05-10T17:55:15;7.32;;;3.22;;
44143;SDS011;68165;51.920;4.492;2023-05-10T17:57:40;7.50;;;3.40;;
44143;SDS011;68165;51.920;4.492;2023-05-10T18:00:06;7.10;;;3.20;;
44143;SDS011;68165;51.920;4.492;2023-05-10T18:02:34;7.40;;;3.10;;
44143;SDS011;68165;51.920;4.492;2023-05-10T18:05:03;6.93;;;3.10;;
44143;SDS011;68165;51.920;4.492;2023-05-10T18:07:29;6.78;;;3.22;;
44143;SDS011;68165;51.920;4.492;2023-05-10T18:09:55;7.38;;;3.20;;
44143;SDS011;68165;51.920;4.492;2023-05-10T18:12:21;8.40;;;3.85;;
44143;SDS011;68165;51.920;4.492;2023-05-10T18:14:48;7.70;;;3.63;;
44143;SDS011;68165;51.920;4.492;2023-05-10T18:24:59;6.35;;;2.80;;
44143;SDS011;68165;51.920;4.492;2023-05-10T18:27:24;9.00;;;3.55;;
44143;SDS011;68165;51.920;4.492;2023-05-10T18:29:50;6.80;;;3.25;;
44143;SDS011;68165;51.920;4.492;2023-05-10T18:32:15;7.05;;;3.25;;
44143;SDS011;68165;51.920;4.492;2023-05-10T18:34:41;8.52;;;3.58;;
44143;SDS011;68165;51.920;4.492;2023-05-10T18:37:07;7.07;;;3.40;;
44143;SDS011;68165;51.920;4.492;2023-05-10T18:39:35;7.68;;;3.28;;
44143;SDS011;68165;51.920;4.492;2023-05-10T18:42:02;9.05;;;3.80;;
44143;SDS011;68165;51.920;4.492;2023-05-10T18:44:28;9.02;;;4.53;;
44143;SDS011;68165;51.920;4.492;2023-05-10T18:49:28;7.65;;;3.42;;
44143;SDS011;68165;51.920;4.492;2023-05-10T18:51:54;6.67;;;3.37;;
44143;SDS011;68165;51.920;4.492;2023-05-10T18:54:19;7.63;;;3.27;;
44143;SDS011;68165;51.920;4.492;2023-05-10T18:56:45;7.60;;;3.10;;
44143;SDS011;68165;51.920;4.492;2023-05-10T18:59:11;5.88;;;2.70;;
44143;SDS011;68165;51.920;4.492;2023-05-10T19:01:37;5.95;;;2.42;;
44143;SDS011;68165;51.920;4.492;2023-05-10T19:04:04;5.80;;;1.90;;
44143;SDS011;68165;51.920;4.492;2023-05-10T19:06:30;5.40;;;2.37;;
44143;SDS011;68165;51.920;4.492;2023-05-10T19:08:55;7.53;;;2.27;;
44143;SDS011;68165;51.920;4.492;2023-05-10T19:11:21;4.53;;;2.20;;
44143;SDS011;68165;51.920;4.492;2023-05-10T19:13:47;6.32;;;2.40;;
44143;SDS011;68165;51.920;4.492;2023-05-10T19:16:13;5.43;;;2.50;;
44143;SDS011;68165;51.920;4.492;2023-05-10T19:57:27;5.38;;;1.90;;
44143;SDS011;68165;51.920;4.492;2023-05-10T19:59:53;4.65;;;2.17;;
44143;SDS011;68165;51.920;4.492;2023-05-10T20:02:18;4.57;;;2.00;;
44143;SDS011;68165;51.920;4.492;2023-05-10T20:08:05;5.82;;;2.50;;
44143;SDS011;68165;51.920;4.492;2023-05-10T20:10:31;5.90;;;2.70;;
44143;SDS011;68165;51.920;4.492;2023-05-10T20:28:29;5.28;;;2.47;;
44143;SDS011;68165;51.920;4.492;2023-05-10T20:30:55;5.47;;;2.40;;
44143;SDS011;68165;51.920;4.492;2023-05-10T20:33:22;5.95;;;2.88;;
44143;SDS011;68165;51.920;4.492;2023-05-10T20:35:49;6.40;;;3.17;;
44143;SDS011;68165;51.920;4.492;2023-05-10T20:38:16;6.28;;;3.00;;
44143;SDS011;68165;51.920;4.492;2023-05-10T20:40:42;7.33;;;3.17;;
44143;SDS011;68165;51.920;4.492;2023-05-10T20:43:07;5.70;;;3.10;;
44143;SDS011;68165;51.920;4.492;2023-05-10T20:45:33;7.20;;;3.10;;
44143;SDS011;68165;51.920;4.492;2023-05-10T20:48:00;6.50;;;3.60;;
44143;SDS011;68165;51.920;4.492;2023-05-10T20:53:48;9.38;;;3.63;;
44143;SDS011;68165;51.920;4.492;2023-05-10T20:56:13;6.93;;;3.80;;
44143;SDS011;68165;51.920;4.492;2023-05-10T20:58:38;7.00;;;3.40;;
44143;SDS011;68165;51.920;4.492;2023-05-10T21:01:04;7.90;;;3.60;;
44143;SDS011;68165;51.920;4.492;2023-05-10T21:03:29;8.13;;;3.57;;
44143;SDS011;68165;51.920;4.492;2023-05-10T21:05:54;6.30;;;3.10;;
44143;SDS011;68165;51.920;4.492;2023-05-10T21:08:20;7.30;;;3.40;;
44143;SDS011;68165;51.920;4.492;2023-05-10T21:10:45;6.40;;;3.17;;
44143;SDS011;68165;51.920;4.492;2023-05-10T21:13:10;6.60;;;3.38;;
44143;SDS011;68165;51.920;4.492;2023-05-10T21:15:36;6.78;;;3.45;;
44143;SDS011;68165;51.920;4.492;2023-05-10T21:18:01;8.40;;;3.93;;
44143;SDS011;68165;51.920;4.492;2023-05-10T21:20:28;6.18;;;3.08;;
44143;SDS011;68165;51.920;4.492;2023-05-10T21:22:54;6.68;;;3.35;;
44143;SDS011;68165;51.920;4.492;2023-05-10T21:25:20;8.43;;;3.70;;
44143;SDS011;68165;51.920;4.492;2023-05-10T21:27:46;7.07;;;3.38;;
44143;SDS011;68165;51.920;4.492;2023-05-10T21:30:11;7.27;;;3.50;;
44143;SDS011;68165;51.920;4.492;2023-05-10T21:32:37;7.37;;;3.60;;
44143;SDS011;68165;51.920;4.492;2023-05-10T21:35:02;7.83;;;3.87;;
44143;SDS011;68165;51.920;4.492;2023-05-10T21:37:28;7.55;;;3.50;;
44143;SDS011;68165;51.920;4.492;2023-05-10T21:39:54;7.10;;;4.03;;
44143;SDS011;68165;51.920;4.492;2023-05-10T21:42:20;8.65;;;4.25;;
44143;SDS011;68165;51.920;4.492;2023-05-10T21:44:45;8.65;;;4.45;;
44143;SDS011;68165;51.920;4.492;2023-05-10T21:47:11;8.20;;;4.10;;
44143;SDS011;68165;51.920;4.492;2023-05-10T21:49:37;7.90;;;4.10;;
44143;SDS011;68165;51.920;4.492;2023-05-10T21:52:02;7.43;;;4.43;;
44143;SDS011;68165;51.920;4.492;2023-05-10T21:54:27;7.38;;;4.22;;
44143;SDS011;68165;51.920;4.492;2023-05-10T21:56:53;7.63;;;4.40;;
44143;SDS011;68165;51.920;4.492;2023-05-10T21:59:18;8.43;;;4.47;;
44143;SDS011;68165;51.920;4.492;2023-05-10T22:01:45;8.10;;;4.50;;
44143;SDS011;68165;51.920;4.492;2023-05-10T22:04:10;8.10;;;4.10;;
44143;SDS011;68165;51.920;4.492;2023-05-10T22:06:36;8.00;;;4.47;;
44143;SDS011;68165;51.920;4.492;2023-05-10T22:09:01;9.30;;;5.10;;
44143;SDS011;68165;51.920;4.492;2023-05-10T22:11:26;8.37;;;4.37;;
44143;SDS011;68165;51.920;4.492;2023-05-10T22:13:53;9.10;;;4.88;;
44143;SDS011;68165;51.920;4.492;2023-05-10T22:16:18;8.93;;;4.63;;
44143;SDS011;68165;51.920;4.492;2023-05-10T22:18:43;8.20;;;4.90;;
44143;SDS011;68165;51.920;4.492;2023-05-10T22:21:09;9.33;;;4.73;;
44143;SDS011;68165;51.920;4.492;2023-05-10T22:23:34;9.13;;;5.30;;
44143;SDS011;68165;51.920;4.492;2023-05-10T22:26:00;9.83;;;5.17;;
44143;SDS011;68165;51.920;4.492;2023-05-10T22:28:26;8.90;;;5.25;;
44143;SDS011;68165;51.920;4.492;2023-05-10T22:30:52;9.65;;;5.50;;
44143;SDS011;68165;51.920;4.492;2023-05-10T22:33:17;11.18;;;6.32;;
44143;SDS011;68165;51.920;4.492;2023-05-10T22:35:43;10.30;;;5.70;;
44143;SDS011;68165;51.920;4.492;2023-05-10T22:38:08;9.93;;;5.80;;
44143;SDS011;68165;51.920;4.492;2023-05-10T22:40:33;10.17;;;5.77;;
44143;SDS011;68165;51.920;4.492;2023-05-10T22:42:59;11.63;;;6.07;;
44143;SDS011;68165;51.920;4.492;2023-05-10T22:45:24;11.05;;;6.30;;
44143;SDS011;68165;51.920;4.492;2023-05-10T22:47:49;10.30;;;5.90;;
44143;SDS011;68165;51.920;4.492;2023-05-10T22:50:16;10.73;;;6.03;;
44143;SDS011;68165;51.920;4.492;2023-05-10T22:52:42;11.35;;;6.15;;
44143;SDS011;68165;51.920;4.492;2023-05-10T22:55:07;11.37;;;6.73;;
44143;SDS011;68165;51.920;4.492;2023-05-10T22:57:33;11.32;;;6.40;;
44143;SDS011;68165;51.920;4.492;2023-05-10T22:59:58;12.20;;;5.90;;
44143;SDS011;68165;51.920;4.492;2023-05-10T23:02:23;10.40;;;5.93;;
44143;SDS011;68165;51.920;4.492;2023-05-10T23:04:49;12.13;;;6.93;;
44143;SDS011;68165;51.920;4.492;2023-05-10T23:07:14;12.17;;;6.93;;
44143;SDS011;68165;51.920;4.492;2023-05-10T23:09:39;10.33;;;6.33;;
44143;SDS011;68165;51.920;4.492;2023-05-10T23:12:05;11.27;;;6.20;;
44143;SDS011;68165;51.920;4.492;2023-05-10T23:14:31;9.83;;;6.00;;
44143;SDS011;68165;51.920;4.492;2023-05-10T23:16:57;11.70;;;6.80;;
44143;SDS011;68165;51.920;4.492;2023-05-10T23:19:22;12.13;;;6.37;;